Main page
Satellite images 15-day forecastsClimateMarine weather Cyclones Lightning AirportsFAQ Newsletter About
Weather : Europe Africa North America South America Asia Australia-Oceania Others
Languages Contact

Maputo, Mozambique

Mavalane

latitude: 25-55S, longitude: 032-34E, elevation: 39 m


METAR: FQMA 021200Z 15014KT 9999 SCT025 24/11 Q1025
short-TAF: out of date (7577 hours)
long-TAF: FQMA 021000Z 0212/0318 14012KT 9999 SCT025 BECMG 0220/0222 21008KT BKN020 BECMG 0312/0314 15012KT TN14/0304ZTX25/0312Z

Time: 15:55 (13:55 UTC)

Current weather observation

The report was made 1 hour and 55 minutes ago, at 12:00 UTC  
Wind 14 kt from the South/Southeast
Temperature 24°C
Humidity 44%
Pressure 1025 hPa
Visibility 10 km or more
Scattered clouds at a height of 2500 ft

Change units

Forecast

The report was made 4 hours and 4 minutes ago, at 09:51 UTC  
Forecast valid from 02 at 12 UTC to 03 at 18 UTC
Wind 12 kt from the Southeast
Visibility 10 km or more
Scattered clouds at a height of 2500 ft
Becoming
from 02 at 20 UTC to 02 at 22 UTC
Wind 08 kt from the South/Southwest
Broken clouds at a height of 2000 ft
Becoming
from 03 at 12 UTC to 03 at 14 UTC
Wind 12 kt from the South/Southeast
The information on this site is subject to a disclaimer
Weather : Europe Africa North America South America Asia Australia-Oceania Others
Satellite images 15-day forecastsClimateMarine weather Cyclones Lightning AirportsFAQ Languages Contact Newsletter About